createdAt,value
2019-02-26T00:00:32.034Z,3.36
2019-02-26T00:03:02.155Z,3.22
2019-02-26T00:05:30.287Z,3.24
2019-02-26T00:07:57.863Z,3.26
2019-02-26T00:10:26.800Z,3.31
2019-02-26T00:12:54.570Z,3.23
2019-02-26T00:15:21.271Z,3.21
2019-02-26T00:17:49.032Z,3.36
2019-02-26T00:20:19.609Z,3.36
2019-02-26T00:22:46.237Z,3.22
2019-02-26T00:25:15.432Z,3.32
2019-02-26T00:27:41.382Z,3.43
2019-02-26T00:30:11.404Z,3.42
2019-02-26T00:32:40.479Z,3.42
2019-02-26T00:35:07.735Z,3.43
2019-02-26T00:37:34.608Z,3.11
2019-02-26T00:40:10.471Z,3.17
2019-02-26T00:42:38.490Z,3.15
2019-02-26T00:45:09.839Z,3.28
2019-02-26T00:47:55.230Z,3.17
2019-02-26T00:50:21.821Z,3.24
2019-02-26T00:52:48.596Z,3.25
2019-02-26T00:55:15.284Z,3.16
2019-02-26T00:57:43.040Z,3.16
2019-02-26T01:00:14.151Z,3.31
2019-02-26T01:02:40.812Z,3.13
2019-02-26T01:05:08.787Z,3.20
2019-02-26T01:07:36.686Z,3.22
2019-02-26T01:10:08.097Z,3.23
2019-02-26T01:12:35.712Z,3.39
2019-02-26T01:15:09.493Z,3.27
2019-02-26T01:17:38.344Z,3.13
2019-02-26T01:20:10.868Z,3.37
2019-02-26T01:22:38.268Z,3.35
2019-02-26T01:25:10.118Z,3.30
2019-02-26T01:27:37.319Z,3.21
2019-02-26T01:30:09.486Z,3.32
2019-02-26T01:32:36.013Z,3.35
2019-02-26T01:35:06.018Z,3.07
2019-02-26T01:37:34.784Z,3.05
2019-02-26T01:40:01.822Z,3.19
2019-02-26T01:42:31.545Z,3.24
2019-02-26T01:44:58.455Z,3.40
2019-02-26T01:47:26.283Z,3.40
2019-02-26T01:49:53.671Z,3.31
2019-02-26T01:52:20.343Z,3.27
2019-02-26T01:54:46.939Z,3.26
2019-02-26T01:57:13.596Z,3.18
2019-02-26T01:59:40.183Z,3.19
2019-02-26T02:02:06.805Z,3.21
2019-02-26T02:04:34.196Z,3.06
2019-02-26T02:07:04.202Z,3.12
2019-02-26T02:09:31.002Z,2.94
2019-02-26T02:11:59.826Z,3.31
2019-02-26T02:14:26.506Z,3.39
2019-02-26T02:16:53.223Z,3.30
2019-02-26T02:19:22.280Z,3.23
2019-02-26T02:21:49.478Z,3.09
2019-02-26T02:24:17.570Z,3.14
2019-02-26T02:26:47.737Z,3.11
2019-02-26T02:29:14.999Z,3.11
2019-02-26T02:31:42.412Z,3.14
2019-02-26T02:34:09.119Z,2.98
2019-02-26T02:36:35.706Z,3.15
2019-02-26T02:39:10.352Z,3.19
2019-02-26T02:41:34.529Z,3.16
2019-02-26T02:44:01.272Z,3.23
2019-02-26T02:46:27.995Z,3.23
2019-02-26T02:48:54.592Z,2.99
2019-02-26T02:51:21.286Z,3.06
2019-02-26T02:53:50.388Z,3.10
2019-02-26T02:56:17.970Z,3.19
2019-02-26T02:58:46.914Z,3.04
2019-02-26T03:01:14.492Z,3.14
2019-02-26T03:03:41.942Z,3.22
2019-02-26T03:06:09.711Z,3.21
2019-02-26T03:08:36.994Z,3.26
2019-02-26T03:11:04.076Z,3.16
2019-02-26T03:13:33.899Z,2.99
2019-02-26T03:16:56.910Z,3.15
2019-02-26T03:19:23.705Z,3.09
2019-02-26T03:21:52.507Z,3.26
2019-02-26T03:24:18.788Z,3.08
2019-02-26T03:27:42.649Z,3.10
2019-02-26T03:30:20.207Z,3.08
2019-02-26T03:32:47.228Z,3.21
2019-02-26T03:35:15.908Z,3.26
2019-02-26T03:37:44.281Z,3.35
2019-02-26T03:40:12.947Z,3.37
2019-02-26T03:42:41.630Z,3.13
2019-02-26T03:45:13.462Z,3.13
2019-02-26T03:47:40.720Z,3.11
2019-02-26T03:50:12.220Z,3.15
2019-02-26T03:52:38.850Z,3.14
2019-02-26T03:55:09.450Z,3.24
2019-02-26T03:57:40.964Z,3.34
2019-02-26T04:00:11.358Z,3.26
2019-02-26T04:02:39.903Z,3.33
2019-02-26T04:05:11.552Z,3.40
2019-02-26T04:07:38.150Z,3.43
2019-02-26T04:10:06.744Z,3.26
2019-02-26T04:12:39.227Z,3.25
2019-02-26T04:15:08.469Z,3.16
2019-02-26T04:17:37.017Z,3.30
2019-02-26T04:21:05.598Z,3.39
2019-02-26T04:23:28.770Z,3.45
2019-02-26T04:26:01.771Z,3.31
2019-02-26T04:28:40.376Z,3.32
2019-02-26T04:31:11.773Z,3.32
2019-02-26T04:33:44.193Z,3.38
2019-02-26T04:36:17.491Z,3.47
2019-02-26T04:38:53.007Z,3.38
2019-02-26T04:41:19.868Z,3.33
2019-02-26T04:43:54.936Z,3.22
2019-02-26T04:46:28.876Z,3.29
2019-02-26T04:48:55.116Z,3.26
2019-02-26T04:51:21.935Z,3.19
2019-02-26T04:53:50.984Z,3.26
2019-02-26T04:56:17.088Z,3.28
2019-02-26T04:58:45.890Z,3.33
2019-02-26T05:01:18.858Z,3.23
2019-02-26T05:03:44.593Z,3.15
2019-02-26T05:06:11.139Z,3.21
2019-02-26T05:08:40.112Z,3.19
2019-02-26T05:11:06.264Z,3.07
2019-02-26T05:13:34.591Z,3.07
2019-02-26T05:16:01.489Z,3.05
2019-02-26T05:18:31.950Z,3.08
2019-02-26T05:20:59.300Z,3.01
2019-02-26T05:23:28.276Z,2.97
2019-02-26T05:25:59.848Z,3.04
2019-02-26T05:28:24.243Z,3.12
2019-02-26T05:30:51.377Z,3.31
2019-02-26T05:33:21.412Z,3.32
2019-02-26T05:35:49.019Z,3.22
2019-02-26T05:38:15.534Z,3.20
2019-02-26T05:40:42.739Z,3.19
2019-02-26T05:43:10.690Z,3.07
2019-02-26T05:45:37.266Z,3.12
2019-02-26T05:48:03.860Z,3.15
2019-02-26T05:50:34.677Z,3.14
2019-02-26T05:53:01.933Z,3.07
2019-02-26T05:55:29.393Z,3.14
2019-02-26T05:57:56.088Z,3.06
2019-02-26T06:00:26.272Z,3.23
2019-02-26T06:02:51.390Z,2.99
2019-02-26T06:05:20.391Z,2.88
2019-02-26T06:07:46.579Z,3.14
2019-02-26T06:10:13.292Z,2.91
2019-02-26T06:12:43.298Z,3.17
2019-02-26T06:15:08.829Z,3.01
2019-02-26T06:17:40.575Z,3.08
2019-02-26T06:20:11.023Z,3.27
2019-02-26T06:22:38.077Z,2.96
2019-02-26T06:25:09.598Z,3.17
2019-02-26T06:27:33.543Z,3.16
2019-02-26T06:30:56.680Z,2.96
2019-02-26T06:33:23.270Z,3.08
2019-02-26T06:35:49.947Z,3.37
2019-02-26T06:38:16.625Z,3.16
2019-02-26T06:40:47.159Z,3.20
2019-02-26T06:43:13.891Z,3.24
2019-02-26T06:45:43.070Z,3.39
2019-02-26T06:48:12.597Z,3.35
2019-02-26T06:50:38.769Z,3.32
2019-02-26T06:53:08.508Z,3.46
2019-02-26T06:55:34.595Z,3.58
2019-02-26T06:58:06.952Z,3.25
2019-02-26T07:00:33.504Z,3.36
2019-02-26T07:03:02.225Z,3.29
2019-02-26T07:05:28.664Z,3.36
2019-02-26T07:07:57.034Z,3.41
2019-02-26T07:10:26.242Z,3.38
2019-02-26T07:12:52.336Z,3.40
2019-02-26T07:15:18.986Z,3.53
2019-02-26T07:17:46.281Z,3.71
2019-02-26T07:20:13.628Z,3.75
2019-02-26T07:22:41.558Z,3.82
2019-02-26T07:25:12.689Z,3.98
2019-02-26T07:27:38.428Z,3.98
2019-02-26T07:30:10.549Z,3.99
2019-02-26T07:32:38.255Z,4.11
2019-02-26T07:35:11.061Z,4.11
2019-02-26T07:37:38.601Z,4.24
2019-02-26T07:40:11.071Z,4.41
2019-02-26T07:42:39.713Z,4.30
2019-02-26T07:45:15.107Z,4.16
2019-02-26T07:47:39.345Z,4.41
2019-02-26T07:50:12.266Z,4.54
2019-02-26T07:52:38.666Z,4.76
2019-02-26T07:55:09.140Z,4.68
2019-02-26T07:57:36.746Z,4.83
2019-02-26T08:00:09.179Z,4.99
2019-02-26T08:02:37.300Z,5.03
2019-02-26T08:05:05.626Z,5.13
2019-02-26T08:07:32.325Z,5.29
2019-02-26T08:09:59.104Z,5.19
2019-02-26T08:12:25.734Z,5.27
2019-02-26T08:14:52.266Z,5.27
2019-02-26T08:17:20.285Z,5.43
2019-02-26T08:19:49.266Z,5.45
2019-02-26T08:22:15.543Z,5.76
2019-02-26T08:24:42.146Z,5.59
2019-02-26T08:27:11.052Z,5.56
2019-02-26T08:29:37.328Z,5.77
2019-02-26T08:32:04.354Z,5.91
2019-02-26T08:34:31.039Z,5.96
2019-02-26T08:36:57.661Z,5.90
2019-02-26T08:39:24.512Z,6.10
2019-02-26T08:41:56.877Z,6.33
2019-02-26T08:44:23.436Z,6.32
2019-02-26T08:46:50.050Z,6.39
2019-02-26T08:49:18.055Z,6.32
2019-02-26T08:51:45.220Z,6.56
2019-02-26T08:54:20.531Z,6.73
2019-02-26T08:56:40.955Z,6.74
2019-02-26T08:59:07.808Z,6.74
2019-02-26T09:01:34.402Z,6.94
2019-02-26T09:04:01.219Z,7.09
2019-02-26T09:06:27.920Z,7.18
2019-02-26T09:08:55.524Z,7.43
2019-02-26T09:11:31.207Z,7.26
2019-02-26T09:13:59.532Z,7.31
2019-02-26T09:16:28.325Z,7.00
2019-02-26T09:18:54.993Z,6.91
2019-02-26T09:21:22.860Z,7.30
2019-02-26T09:23:53.808Z,7.35
2019-02-26T09:26:18.657Z,7.55
2019-02-26T09:28:47.557Z,7.74
2019-02-26T09:31:14.206Z,7.64
2019-02-26T09:33:45.490Z,7.59
2019-02-26T09:36:14.973Z,7.70
2019-02-26T09:38:46.877Z,7.62
2019-02-26T09:41:14.725Z,7.82
2019-02-26T09:43:43.384Z,7.98
2019-02-26T09:46:14.432Z,7.91
2019-02-26T09:48:41.107Z,7.90
2019-02-26T09:51:09.423Z,7.92
2019-02-26T09:53:36.806Z,7.89
2019-02-26T09:56:03.841Z,8.09
2019-02-26T09:58:31.393Z,8.10
2019-02-26T10:00:57.989Z,8.32
2019-02-26T10:03:24.684Z,8.17
2019-02-26T10:05:53.211Z,8.26
2019-02-26T10:08:22.223Z,8.40
2019-02-26T10:10:48.557Z,8.58
2019-02-26T10:13:15.881Z,8.91
2019-02-26T10:15:44.838Z,8.86
2019-02-26T10:18:11.683Z,8.87
2019-02-26T10:20:38.279Z,8.88
2019-02-26T10:23:06.288Z,8.66
2019-02-26T10:25:34.850Z,8.75
2019-02-26T10:28:05.787Z,8.90
2019-02-26T10:30:33.376Z,8.83
2019-02-26T10:33:02.192Z,9.00
2019-02-26T10:36:24.096Z,9.12
2019-02-26T10:38:52.631Z,9.27
2019-02-26T10:41:21.218Z,9.24
2019-02-26T10:43:49.679Z,9.25
2019-02-26T10:46:16.403Z,9.34
2019-02-26T10:48:43.894Z,9.38
2019-02-26T10:51:13.165Z,9.34
2019-02-26T10:54:40.179Z,9.38
2019-02-26T10:57:07.591Z,9.53
2019-02-26T10:59:33.707Z,9.66
2019-02-26T11:02:02.995Z,9.82
2019-02-26T11:04:34.789Z,9.79
2019-02-26T11:06:59.467Z,9.90
2019-02-26T11:09:29.273Z,9.89
2019-02-26T11:11:57.544Z,9.83
2019-02-26T11:14:24.085Z,9.96
2019-02-26T11:16:50.652Z,9.96
2019-02-26T11:19:17.262Z,10.06
2019-02-26T11:21:43.841Z,10.38
2019-02-26T11:24:11.263Z,10.33
2019-02-26T11:26:39.020Z,10.24
2019-02-26T11:29:06.959Z,10.00
2019-02-26T11:31:33.506Z,10.14
2019-02-26T11:34:03.571Z,9.98
2019-02-26T11:36:31.260Z,10.01
2019-02-26T11:39:01.261Z,9.99
2019-02-26T11:41:29.268Z,9.98
2019-02-26T11:43:55.790Z,10.06
2019-02-26T11:46:23.160Z,10.06
2019-02-26T11:48:52.575Z,10.04
2019-02-26T11:51:20.072Z,9.96
2019-02-26T11:53:46.792Z,10.10
2019-02-26T11:56:15.320Z,9.97
2019-02-26T11:58:42.236Z,10.08
2019-02-26T12:01:09.249Z,9.93
2019-02-26T12:03:37.118Z,9.92
2019-02-26T12:06:07.053Z,10.23
2019-02-26T12:08:33.913Z,10.38
2019-02-26T12:11:03.531Z,10.41
2019-02-26T12:13:29.283Z,10.07
2019-02-26T12:15:56.293Z,10.29
2019-02-26T12:18:23.272Z,10.33
2019-02-26T12:20:49.850Z,9.86
2019-02-26T12:23:19.015Z,9.71
2019-02-26T12:25:47.144Z,10.13
2019-02-26T12:28:13.786Z,9.99
2019-02-26T12:30:43.898Z,9.51
2019-02-26T12:33:12.363Z,9.70
2019-02-26T12:35:40.631Z,9.76
2019-02-26T12:38:18.255Z,9.74
2019-02-26T12:40:37.902Z,9.86
2019-02-26T12:43:06.627Z,9.93
2019-02-26T12:45:37.715Z,9.72
2019-02-26T12:48:03.143Z,9.65
2019-02-26T12:50:34.214Z,9.98
2019-02-26T12:53:00.831Z,9.92
2019-02-26T12:55:31.562Z,9.62
2019-02-26T12:57:58.789Z,9.93
2019-02-26T13:00:24.936Z,10.07
2019-02-26T13:02:52.370Z,10.09
2019-02-26T13:05:22.852Z,9.90
2019-02-26T13:07:49.182Z,10.08
2019-02-26T13:10:20.622Z,9.98
2019-02-26T13:12:50.477Z,9.87
2019-02-26T13:15:19.305Z,9.93
2019-02-26T13:17:48.908Z,9.96
2019-02-26T13:20:20.341Z,10.17
2019-02-26T13:22:47.064Z,10.35
2019-02-26T13:25:17.752Z,10.43
2019-02-26T13:27:47.256Z,10.45
2019-02-26T13:30:17.869Z,10.24
2019-02-26T13:32:57.217Z,10.13
2019-02-26T13:35:13.576Z,9.98
2019-02-26T13:37:41.847Z,10.11
2019-02-26T13:40:13.666Z,10.09
2019-02-26T13:42:40.550Z,10.23
2019-02-26T13:45:12.514Z,10.01
2019-02-26T13:47:39.489Z,10.19
2019-02-26T13:50:11.521Z,10.12
2019-02-26T13:52:38.461Z,10.24
2019-02-26T13:55:09.194Z,10.06
2019-02-26T13:57:35.962Z,10.19
2019-02-26T14:00:09.422Z,10.21
2019-02-26T14:02:36.691Z,10.06
2019-02-26T14:05:08.999Z,10.17
2019-02-26T14:07:35.788Z,10.15
2019-02-26T14:10:07.423Z,10.15
2019-02-26T14:12:34.107Z,9.83
2019-02-26T14:15:00.807Z,9.73
2019-02-26T14:17:27.577Z,9.80
2019-02-26T14:19:54.329Z,10.01
2019-02-26T14:22:21.110Z,9.98
2019-02-26T14:24:52.609Z,9.76
2019-02-26T14:27:19.265Z,9.84
2019-02-26T14:30:42.409Z,9.89
2019-02-26T14:33:09.131Z,9.87
2019-02-26T14:35:35.733Z,9.89
2019-02-26T14:38:03.010Z,10.14
2019-02-26T14:40:29.923Z,9.83
2019-02-26T14:42:56.606Z,9.89
2019-02-26T14:45:26.119Z,9.72
2019-02-26T14:47:52.865Z,9.91
2019-02-26T14:50:22.454Z,10.01
2019-02-26T14:52:49.214Z,9.89
2019-02-26T14:55:16.963Z,9.87
2019-02-26T14:57:44.334Z,9.86
2019-02-26T15:00:18.465Z,9.97
2019-02-26T15:02:46.097Z,9.94
2019-02-26T15:05:12.997Z,10.06
2019-02-26T15:07:40.981Z,10.02
2019-02-26T15:10:10.308Z,9.85
2019-02-26T15:12:37.006Z,9.61
2019-02-26T15:15:08.922Z,9.40
2019-02-26T15:17:35.724Z,9.37
2019-02-26T15:20:58.735Z,9.52
2019-02-26T15:23:25.390Z,9.53
2019-02-26T15:25:52.237Z,9.54
2019-02-26T15:28:18.848Z,9.42
2019-02-26T15:30:45.844Z,9.36
2019-02-26T15:33:12.509Z,9.36
2019-02-26T15:35:39.356Z,9.32
2019-02-26T15:38:06.039Z,9.42
2019-02-26T15:40:32.798Z,9.22
2019-02-26T15:43:02.497Z,9.35
2019-02-26T15:45:30.757Z,9.31
2019-02-26T15:47:57.497Z,9.17
2019-02-26T15:50:24.534Z,9.06
2019-02-26T15:52:52.955Z,9.10
2019-02-26T15:55:25.958Z,9.11
2019-02-26T15:57:52.583Z,9.13
2019-02-26T16:00:23.334Z,9.05
2019-02-26T16:02:52.229Z,8.81
2019-02-26T16:05:23.720Z,8.77
2019-02-26T16:07:50.467Z,8.98
2019-02-26T16:10:19.454Z,8.56
2019-02-26T16:12:46.658Z,8.53
2019-02-26T16:15:16.442Z,8.52
2019-02-26T16:17:43.503Z,8.54
2019-02-26T16:20:16.235Z,8.52
2019-02-26T16:22:43.526Z,8.34
2019-02-26T16:25:10.515Z,8.44
2019-02-26T16:27:37.843Z,8.12
2019-02-26T16:30:10.476Z,8.18
2019-02-26T16:32:37.384Z,8.21
2019-02-26T16:35:05.877Z,8.23
2019-02-26T16:37:34.368Z,8.18
2019-02-26T16:40:01.171Z,8.19
2019-02-26T16:42:28.141Z,8.11
2019-02-26T16:44:55.559Z,8.05
2019-02-26T16:47:24.029Z,8.12
2019-02-26T16:49:51.763Z,8.06
2019-02-26T16:52:18.702Z,8.11
2019-02-26T16:54:45.532Z,8.01
2019-02-26T16:57:13.048Z,7.87
2019-02-26T16:59:40.868Z,7.84
2019-02-26T17:02:08.395Z,7.93
2019-02-26T17:04:35.220Z,7.80
2019-02-26T17:07:02.000Z,7.67
2019-02-26T17:09:29.324Z,7.65
2019-02-26T17:11:56.437Z,7.72
2019-02-26T17:14:23.286Z,7.71
2019-02-26T17:16:51.142Z,7.70
2019-02-26T17:19:18.046Z,7.82
2019-02-26T17:22:41.656Z,7.73
2019-02-26T17:25:09.000Z,7.77
2019-02-26T17:27:36.554Z,7.53
2019-02-26T17:30:11.360Z,7.78
2019-02-26T17:32:38.280Z,7.59
2019-02-26T17:35:08.518Z,7.54
2019-02-26T17:37:35.129Z,7.37
2019-02-26T17:40:05.424Z,7.40
2019-02-26T17:42:32.390Z,7.26
2019-02-26T17:44:59.206Z,7.29
2019-02-26T17:47:28.630Z,7.39
2019-02-26T17:49:59.143Z,7.18
2019-02-26T17:52:27.204Z,7.13
2019-02-26T17:54:54.057Z,7.09
2019-02-26T17:57:20.840Z,7.16
2019-02-26T17:59:47.491Z,7.07
2019-02-26T18:02:14.421Z,6.92
2019-02-26T18:04:41.140Z,7.08
2019-02-26T18:07:07.725Z,6.77
2019-02-26T18:09:35.027Z,6.93
2019-02-26T18:12:02.337Z,6.78
2019-02-26T18:14:29.494Z,6.84
2019-02-26T18:16:56.237Z,6.71
2019-02-26T18:19:22.999Z,6.76
2019-02-26T18:21:51.659Z,6.65
2019-02-26T18:24:18.220Z,6.79
2019-02-26T18:26:46.934Z,6.69
2019-02-26T18:29:14.114Z,6.65
2019-02-26T18:31:40.895Z,6.66
2019-02-26T18:34:07.813Z,6.66
2019-02-26T18:36:34.602Z,6.56
2019-02-26T18:39:01.185Z,6.43
2019-02-26T18:41:30.521Z,6.55
2019-02-26T18:43:59.206Z,6.42
2019-02-26T18:46:28.020Z,6.32
2019-02-26T18:48:54.907Z,6.35
2019-02-26T18:51:21.899Z,6.33
2019-02-26T18:53:48.480Z,6.44
2019-02-26T18:56:15.376Z,6.29
2019-02-26T18:58:46.669Z,6.31
2019-02-26T19:01:13.831Z,6.05
2019-02-26T19:03:41.632Z,6.05
2019-02-26T19:06:08.974Z,6.10
2019-02-26T19:08:39.173Z,6.05
2019-02-26T19:11:04.374Z,5.86
2019-02-26T19:13:33.280Z,5.94
2019-02-26T19:16:00.039Z,5.83
2019-02-26T19:18:27.010Z,6.01
2019-02-26T19:20:56.196Z,5.99
2019-02-26T19:23:23.163Z,5.92
2019-02-26T19:25:50.149Z,5.88
2019-02-26T19:28:17.048Z,5.74
2019-02-26T19:30:44.014Z,5.70
2019-02-26T19:33:11.252Z,5.57
2019-02-26T19:35:40.677Z,5.63
2019-02-26T19:38:07.794Z,5.64
2019-02-26T19:40:40.555Z,5.56
2019-02-26T19:43:07.406Z,5.17
2019-02-26T19:45:34.808Z,5.36
2019-02-26T19:48:01.508Z,5.24
2019-02-26T19:50:28.546Z,5.37
2019-02-26T19:52:57.288Z,5.45
2019-02-26T19:55:29.084Z,5.37
2019-02-26T19:57:56.008Z,5.38
2019-02-26T20:00:22.799Z,5.32
2019-02-26T20:02:49.806Z,5.44
2019-02-26T20:05:18.568Z,5.05
2019-02-26T20:07:45.941Z,5.27
2019-02-26T20:10:16.359Z,5.21
2019-02-26T20:12:44.998Z,5.14
2019-02-26T20:15:13.411Z,5.21
2019-02-26T20:17:40.572Z,5.06
2019-02-26T20:20:11.862Z,5.06
2019-02-26T20:22:38.891Z,5.12
2019-02-26T20:25:11.442Z,4.84
2019-02-26T20:27:38.460Z,4.81
2019-02-26T20:30:12.356Z,4.70
2019-02-26T20:32:39.230Z,4.74
2019-02-26T20:35:11.541Z,4.88
2019-02-26T20:37:38.207Z,4.79
2019-02-26T20:40:10.101Z,4.70
2019-02-26T20:42:36.894Z,4.81
2019-02-26T20:45:08.929Z,4.81
2019-02-26T20:47:35.712Z,4.47
2019-02-26T20:50:07.732Z,4.54
2019-02-26T20:52:36.961Z,4.75
2019-02-26T20:55:08.558Z,4.63
2019-02-26T20:57:37.783Z,4.68
2019-02-26T21:00:10.245Z,4.83
2019-02-26T21:02:38.993Z,4.88
2019-02-26T21:05:08.368Z,4.74
2019-02-26T21:07:35.333Z,4.75
2019-02-26T21:10:06.694Z,4.65
2019-02-26T21:12:34.795Z,4.47
2019-02-26T21:15:04.027Z,4.63
2019-02-26T21:17:30.736Z,4.66
2019-02-26T21:19:57.308Z,4.48
2019-02-26T21:22:24.893Z,4.51
2019-02-26T21:24:51.498Z,4.56
2019-02-26T21:27:18.084Z,4.40
2019-02-26T21:29:44.816Z,4.37
2019-02-26T21:32:12.687Z,4.27
2019-02-26T21:34:39.303Z,4.10
2019-02-26T21:37:06.032Z,4.09
2019-02-26T21:39:32.597Z,4.07
2019-02-26T21:41:59.288Z,4.01
2019-02-26T21:44:26.124Z,4.14
2019-02-26T21:46:55.824Z,4.06
2019-02-26T21:49:21.853Z,4.14
2019-02-26T21:51:48.818Z,4.07
2019-02-26T21:54:15.511Z,4.27
2019-02-26T21:56:42.095Z,3.93
2019-02-26T21:59:08.755Z,3.94
2019-02-26T22:01:35.334Z,3.83
2019-02-26T22:04:02.049Z,3.71
2019-02-26T22:06:28.886Z,3.79
2019-02-26T22:08:57.111Z,3.75
2019-02-26T22:11:23.977Z,3.61
2019-02-26T22:13:50.617Z,3.74
2019-02-26T22:16:17.686Z,3.74
2019-02-26T22:18:45.322Z,3.74
2019-02-26T22:21:12.084Z,3.77
2019-02-26T22:23:40.625Z,3.73
2019-02-26T22:26:07.338Z,3.58
2019-02-26T22:28:34.299Z,3.53
2019-02-26T22:31:00.842Z,3.28
2019-02-26T22:33:27.479Z,3.45
2019-02-26T22:35:54.241Z,3.49
2019-02-26T22:38:20.789Z,3.40
2019-02-26T22:40:47.452Z,3.32
2019-02-26T22:43:14.345Z,3.35
2019-02-26T22:45:40.949Z,3.34
2019-02-26T22:49:04.506Z,3.29
2019-02-26T22:51:31.180Z,3.17
2019-02-26T22:53:57.959Z,3.37
2019-02-26T22:56:24.780Z,3.36
2019-02-26T22:58:51.768Z,3.43
2019-02-26T23:01:30.278Z,3.31
2019-02-26T23:03:53.898Z,3.28
2019-02-26T23:06:20.937Z,3.19
2019-02-26T23:08:48.056Z,3.14
2019-02-26T23:11:15.432Z,2.89
2019-02-26T23:13:44.122Z,3.11
2019-02-26T23:16:11.167Z,3.18
2019-02-26T23:18:38.521Z,3.20
2019-02-26T23:21:06.231Z,2.84
2019-02-26T23:23:33.096Z,2.94
2019-02-26T23:26:00.122Z,2.98
2019-02-26T23:28:27.169Z,2.89
2019-02-26T23:30:54.337Z,2.77
2019-02-26T23:33:21.014Z,2.94
2019-02-26T23:35:49.224Z,2.67
2019-02-26T23:38:16.548Z,2.83
2019-02-26T23:40:43.363Z,2.81
2019-02-26T23:43:11.965Z,2.67
2019-02-26T23:45:39.142Z,2.82
2019-02-26T23:48:08.013Z,2.79
2019-02-26T23:50:35.227Z,2.80
2019-02-26T23:53:01.995Z,2.77
2019-02-26T23:56:25.131Z,2.50
2019-02-26T23:58:51.862Z,2.51
